Time;durP1;ratioP1;P1;durP2;ratioP2;P2;SDS_P1;SDS_P2;PMS_P1;PMS_P2;Temp;Humidity;BMP_temperature;BMP_pressure;BME280_temperature;BME280_humidity;BME280_pressure;Samples;Min_cycle;Max_cycle;Signal;HPM_P1;HPM_P2
2022/04/16 00:01:22;;;;;;;;;;;;;;;12.68;47.80;92887.59;5037476;28;20076;-95
2022/04/16 00:04:17;;;;;;;;;;;;;;;;;;;;;
2022/04/16 00:07:13;;;;;;;;;;;;;;;12.50;48.88;92876.09;5056358;28;20042;-95
2022/04/16 00:13:44;;;;;;;;;;;;;;;;;;;;;
2022/04/16 00:16:27;;;;;;;;;;;;;;;;;;;;;
2022/04/16 00:19:01;;;;;;;17.85;5.18;;;;;;;12.38;48.67;92867.88;5044592;28;20045;-94
2022/04/16 00:21:51;;;;;;;14.15;5.20;;;;;;;12.36;48.53;92864.75;5032044;28;20118;-95
2022/04/16 00:24:45;;;;;;;;;;;;;;;;;;;;;
2022/04/16 00:27:19;;;;;;;12.88;5.10;;;;;;;12.25;48.60;92843.16;5030505;28;20033;-94
2022/04/16 00:30:20;;;;;;;11.15;4.03;;;;;;;12.35;48.58;92868.44;5043542;28;20047;-94
2022/04/16 00:33:04;;;;;;;13.43;5.20;;;;;;;11.96;48.47;92814.47;5029138;28;20041;-94
2022/04/16 00:35:45;;;;;;;;;;;;;;;;;;;;;
2022/04/16 00:38:39;;;;;;;9.98;4.30;;;;;;;12.15;48.42;92830.97;5050163;28;20037;-94
2022/04/16 00:44:39;;;;;;;10.90;4.07;;;;;;;12.14;47.81;92826.78;5025150;28;20037;-94
2022/04/16 00:47:20;;;;;;;12.88;3.92;;;;;;;12.04;47.63;92798.06;5033074;28;20045;-91
2022/04/16 00:50:19;;;;;;;9.18;3.45;;;;;;;12.34;47.44;92840.63;5039435;28;20128;-95
2022/04/16 00:53:05;;;;;;;7.88;3.25;;;;;;;12.16;46.57;92808.91;5043272;28;20038;-93
2022/04/16 00:56:00;;;;;;;13.75;3.50;;;;;;;12.50;46.58;92844.59;5040785;28;20036;-93
2022/04/16 00:59:08;;;;;;;;;;;;;;;;;;;;;
2022/04/16 01:02:10;;;;;;;5.18;2.90;;;;;;;12.46;46.58;92859.34;5040041;28;20057;-92
2022/04/16 01:04:48;;;;;;;9.13;2.83;;;;;;;12.20;46.71;92824.84;5040735;28;20116;-93
2022/04/16 01:07:24;;;;;;;6.47;3.00;;;;;;;12.05;47.13;92804.88;5041846;28;20045;-95
2022/04/16 01:10:10;;;;;;;9.02;2.80;;;;;;;12.08;47.00;92812.94;5039946;28;20564;-95
2022/04/16 01:13:08;;;;;;;8.13;3.33;;;;;;;12.09;46.78;92816.34;5039965;28;20064;-94
2022/04/16 01:15:40;;;;;;;12.15;2.90;;;;;;;12.13;46.77;92819.19;5041648;28;20117;-94
2022/04/16 01:18:23;;;;;;;5.85;2.53;;;;;;;12.27;46.79;92835.75;5055646;28;20550;-94
2022/04/16 01:21:11;;;;;;;;;;;;;;;;;;;;;
2022/04/16 01:24:09;;;;;;;8.80;2.70;;;;;;;12.14;46.14;92811.03;5040631;28;20037;-93
2022/04/16 01:26:54;;;;;;;6.65;2.50;;;;;;;12.36;45.77;92823.56;5039550;28;20095;-93
2022/04/16 01:29:30;;;;;;;6.80;2.78;;;;;;;12.08;45.85;92785.94;5024772;28;20034;-93
2022/04/16 01:32:25;;;;;;;;;;;;;;;;;;;;;
2022/04/16 01:35:34;;;;;;;;;;;;;;;;;;;;;
2022/04/16 01:38:30;;;;;;;5.65;2.47;;;;;;;12.08;46.03;92780.69;5036946;28;20103;-93
2022/04/16 01:41:04;;;;;;;7.60;2.78;;;;;;;11.98;46.04;92786.91;5015913;28;20144;-93
2022/04/16 01:44:05;;;;;;;;;;;;;;;;;;;;;
2022/04/16 01:47:15;;;;;;;7.93;2.60;;;;;;;12.09;45.74;92787.47;5032474;28;20053;-94
2022/04/16 01:49:48;;;;;;;5.75;2.60;;;;;;;12.10;45.72;92789.06;5041395;28;20041;-93
2022/04/16 01:52:38;;;;;;;6.05;2.60;;;;;;;11.95;46.15;92774.34;5047000;28;20097;-94
2022/04/16 01:55:30;;;;;;;;;;;;;;;;;;;;;
2022/04/16 01:58:22;;;;;;;7.10;2.80;;;;;;;11.98;46.03;92799.22;5031661;28;20057;-94
2022/04/16 02:01:34;;;;;;;;;;;;;;;;;;;;;
2022/04/16 02:04:24;;;;;;;6.30;2.58;;;;;;;11.90;45.98;92778.91;5026764;28;20072;-93
2022/04/16 02:07:34;;;;;;;8.40;2.80;;;;;;;11.89;46.12;92786.00;5030598;28;20041;-94
2022/04/16 02:16:03;;;;;;;;;;;;;;;;;;;;;
2022/04/16 02:21:55;;;;;;;;;;;;;;;;;;;;;
2022/04/16 02:25:05;;;;;;;10.10;2.50;;;;;;;12.05;45.99;92825.88;5056397;28;20049;-92
2022/04/16 02:28:05;;;;;;;;;;;;;;;;;;;;;
2022/04/16 02:31:01;;;;;;;5.82;2.70;;;;;;;11.65;46.06;92768.47;5045444;28;20127;-95
2022/04/16 02:33:59;;;;;;;6.78;2.60;;;;;;;11.64;46.33;92766.13;5033056;28;20416;-94
2022/04/16 02:37:04;;;;;;;8.30;2.63;;;;;;;11.82;45.70;92788.16;5004982;28;20061;-94
2022/04/16 02:39:42;;;;;;;8.05;2.80;;;;;;;11.88;45.61;92790.44;5005030;28;20136;-93
2022/04/16 02:42:44;;;;;;;6.88;2.60;;;;;;;11.84;45.80;92780.78;5007672;28;20036;-94
2022/04/16 02:48:58;;;;;;;;;;;;;;;;;;;;;
2022/04/16 02:51:32;;;;;;;7.78;2.53;;;;;;;11.68;45.86;92761.88;5028218;28;20723;-94
2022/04/16 02:54:19;;;;;;;8.98;2.50;;;;;;;11.76;45.90;92774.34;5013246;28;20040;-95
2022/04/16 02:57:39;;;;;;;10.38;2.60;;;;;;;11.92;46.12;92793.28;5027408;28;20073;-93
2022/04/16 03:03:46;;;;;;;8.20;2.60;;;;;;;11.58;45.89;92741.06;5003399;28;20050;-94
2022/04/16 03:06:23;;;;;;;7.40;2.70;;;;;;;11.75;45.08;92756.25;5006801;28;20050;-94
2022/04/16 03:09:14;;;;;;;7.88;3.17;;;;;;;12.01;44.94;92790.78;5008902;28;20030;-96
2022/04/16 03:12:13;;;;;;;5.50;2.40;;;;;;;11.66;44.91;92737.78;5010400;28;20108;-94
2022/04/16 03:17:58;;;;;;;6.38;2.53;;;;;;;11.82;45.43;92773.22;5007435;28;20057;-94
2022/04/16 03:20:29;;;;;;;6.35;2.67;;;;;;;11.76;45.68;92770.94;5009269;28;20072;-95
2022/04/16 03:26:00;;;;;;;;;;;;;;;;;;;;;
2022/04/16 03:29:04;;;;;;;6.97;2.33;;;;;;;11.50;45.44;92744.31;5015222;28;20103;-94
2022/04/16 03:31:54;;;;;;;5.45;2.20;;;;;;;11.43;45.31;92729.72;4986636;28;20730;-95
2022/04/16 03:34:28;;;;;;;6.28;2.38;;;;;;;11.62;45.62;92763.03;4987417;28;20575;-95
2022/04/16 03:37:31;;;;;;;4.20;2.30;;;;;;;11.67;45.24;92776.06;5032922;28;20045;-96
2022/04/16 03:40:26;;;;;;;5.18;2.28;;;;;;;11.59;45.05;92766.22;5042587;28;20032;-93
2022/04/16 03:43:30;;;;;;;5.07;2.40;;;;;;;11.59;45.31;92764.34;5026658;28;20022;-94
2022/04/16 03:46:12;;;;;;;5.25;2.20;;;;;;;11.29;44.78;92717.63;5038817;28;20042;-94
2022/04/16 03:48:51;;;;;;;10.00;2.90;;;;;;;11.64;44.39;92760.88;5012363;28;20125;-95
2022/04/16 03:51:43;;;;;;;5.97;2.75;;;;;;;11.46;44.00;92717.91;5010592;28;20064;-94
2022/04/16 04:00:36;;;;;;;;;;;;;;;;;;;;;
2022/04/16 04:03:16;;;;;;;6.25;2.22;;;;;;;11.73;43.68;92748.69;5026354;28;20030;-94
2022/04/16 04:06:20;;;;;;;7.10;2.20;;;;;;;11.70;43.57;92744.00;5027415;28;20097;-94
2022/04/16 04:09:26;;;;;;;6.03;2.13;;;;;;;11.61;43.25;92714.25;5026474;28;20057;-96
2022/04/16 04:12:24;;;;;;;5.90;2.10;;;;;;;11.46;43.21;92713.44;5025186;28;20109;-94
2022/04/16 04:15:35;;;;;;;5.13;2.20;;;;;;;11.81;43.33;92769.00;5027497;28;20045;-94
2022/04/16 04:18:48;;;;;;;7.70;2.33;;;;;;;11.55;43.38;92741.63;5013175;28;20096;-94
2022/04/16 04:22:07;;;;;;;6.28;2.50;;;;;;;11.87;42.83;92748.75;4999848;28;20034;-95
2022/04/16 04:24:53;;;;;;;6.07;2.20;;;;;;;11.56;42.79;92725.59;5015397;28;20088;-94
2022/04/16 04:27:54;;;;;;;;;;;;;;;;;;;;;
2022/04/16 04:33:53;;;;;;;4.20;1.98;;;;;;;11.65;43.04;92757.97;5015452;28;20037;-94
2022/04/16 04:36:44;;;;;;;4.85;1.98;;;;;;;11.65;42.92;92755.34;5035079;28;20500;-94
2022/04/16 04:39:53;;;;;;;;;;;;;;;;;;;;;
2022/04/16 04:42:43;;;;;;;;;;;;;;;;;;;;;
2022/04/16 04:45:50;;;;;;;5.18;2.10;;;;;;;11.52;41.78;92736.94;5034768;28;20117;-93
2022/04/16 04:48:55;;;;;;;5.20;2.17;;;;;;;11.55;41.81;92733.75;5048835;28;20044;-94
2022/04/16 04:51:37;;;;;;;4.93;2.20;;;;;;;11.85;41.11;92754.25;5009451;28;20124;-94
2022/04/16 04:54:22;;;;;;;5.90;2.00;;;;;;;11.68;41.04;92722.53;5008634;28;20029;-93
2022/04/16 04:57:20;;;;;;;6.43;2.20;;;;;;;11.78;40.62;92727.63;5013990;28;20038;-94
2022/04/16 05:00:07;;;;;;;;;;;;;;;;;;;;;
2022/04/16 05:02:48;;;;;;;6.38;1.90;;;;;;;11.95;40.14;92731.59;5039747;28;20045;-94
2022/04/16 05:08:29;;;;;;;5.35;2.08;;;;;;;12.46;39.60;92781.34;5042623;28;20041;-93
2022/04/16 05:11:32;;;;;;;4.70;1.83;;;;;;;12.14;39.69;92729.69;5019630;28;20021;-94
2022/04/16 05:14:52;;;;;;;;;;;;;;;;;;;;;
2022/04/16 05:17:42;;;;;;;4.13;1.90;;;;;;;12.27;38.88;92715.81;5052733;28;20136;-93
2022/04/16 05:20:29;;;;;;;3.42;1.90;;;;;;;12.37;38.78;92722.72;5049667;28;20055;-93
2022/04/16 05:23:39;;;;;;;6.13;1.95;;;;;;;12.47;38.61;92717.28;5051058;28;20125;-94
2022/04/16 05:27:01;;;;;;;;;;;;;;;;;;;;;
2022/04/16 05:29:58;;;;;;;;;;;;;;;;;;;;;
2022/04/16 05:36:43;;;;;;;8.85;2.65;;;;;;;12.92;36.92;92745.56;5028086;28;20056;-93
2022/04/16 05:39:29;;;;;;;4.38;1.70;;;;;;;13.19;36.36;92738.69;5003033;28;20041;-93
2022/04/16 05:42:43;;;;;;;5.57;1.77;;;;;;;13.59;35.41;92759.97;5009160;28;20105;-93
2022/04/16 05:45:43;;;;;;;4.47;1.60;;;;;;;13.60;35.39;92732.56;5036890;28;20129;-93
2022/04/16 05:49:00;;;;;;;;;;;;;;;;;;;;;
2022/04/16 05:51:50;;;;;;;3.75;1.63;;;;;;;14.09;33.73;92733.50;5028123;28;20128;-90
2022/04/16 05:54:24;;;;;;;5.35;2.00;;;;;;;14.17;34.06;92735.44;5047697;28;20041;-90
2022/04/16 05:57:09;;;;;;;4.55;1.70;;;;;;;14.57;32.35;92746.81;5026979;28;20088;-90
2022/04/16 05:59:56;;;;;;;4.93;1.70;;;;;;;14.91;33.23;92779.63;5064700;28;20036;-90
2022/04/16 06:02:45;;;;;;;3.00;1.70;;;;;;;14.78;32.80;92746.25;5066552;28;20073;-89
2022/04/16 06:05:22;;;;;;;3.17;1.80;;;;;;;14.93;32.43;92742.44;5033518;28;20508;-89
2022/04/16 06:07:53;;;;;;;7.50;2.00;;;;;;;15.42;31.49;92787.97;5047836;28;20037;-90
2022/04/16 06:10:38;;;;;;;4.23;1.83;;;;;;;15.54;31.39;92768.91;5066003;28;20128;-89
2022/04/16 06:13:24;;;;;;;3.10;1.90;;;;;;;15.53;32.10;92731.19;5048815;28;20092;-90
2022/04/16 06:16:10;;;;;;;3.67;1.60;;;;;;;15.86;31.35;92730.72;5030567;28;20037;-89
2022/04/16 06:18:49;;;;;;;4.15;1.67;;;;;;;16.33;29.61;92725.50;5032129;28;20063;-90
2022/04/16 06:21:49;;;;;;;4.45;1.70;;;;;;;17.47;29.02;92773.38;5032732;28;20090;-90
2022/04/16 06:24:43;;;;;;;4.97;1.95;;;;;;;21.54;23.40;92726.53;5043225;28;20143;-91
2022/04/16 06:27:22;;;;;;;4.18;1.80;;;;;;;24.92;19.69;92717.09;5030165;28;20037;-90
2022/04/16 06:30:01;;;;;;;4.25;1.88;;;;;;;26.15;17.46;92724.75;5052557;28;20040;-89
2022/04/16 06:32:42;;;;;;;6.97;1.92;;;;;;;25.87;17.11;92722.69;5036180;28;20045;-90
2022/04/16 06:35:12;;;;;;;3.55;1.70;;;;;;;26.83;17.07;92751.78;4991687;28;20129;-90
2022/04/16 06:37:54;;;;;;;6.37;1.77;;;;;;;26.67;16.18;92719.94;5020821;28;20040;-90
2022/04/16 06:40:25;;;;;;;9.67;1.50;;;;;;;25.25;17.41;92716.22;5037908;28;20276;-90
2022/04/16 06:43:23;;;;;;;;;;;;;;;;;;;;;
2022/04/16 06:45:55;;;;;;;4.07;1.90;;;;;;;27.89;15.23;92721.81;5019097;28;20038;-90
2022/04/16 06:48:26;;;;;;;3.65;1.80;;;;;;;28.96;14.62;92732.06;5037515;28;20044;-90
2022/04/16 06:51:01;;;;;;;5.57;1.88;;;;;;;29.42;14.50;92730.19;5004215;28;20052;-91
2022/04/16 06:53:51;;;;;;;;;;;;;;;;;;;;;
2022/04/16 06:56:54;;;;;;;;;;;;;;;;;;;;;
2022/04/16 06:59:32;;;;;;;4.13;1.55;;;;;;;30.13;12.73;92706.34;5030828;28;20045;-90
2022/04/16 07:02:00;;;;;;;3.20;1.48;;;;;;;29.67;13.24;92748.81;5014055;28;20037;-90
2022/04/16 07:04:45;;;;;;;4.75;1.75;;;;;;;27.68;14.83;92722.63;5031542;28;20132;-90
2022/04/16 07:07:24;;;;;;;3.45;1.73;;;;;;;25.69;15.78;92701.94;5049791;28;20018;-91
2022/04/16 07:09:53;;;;;;;3.80;1.80;;;;;;;24.36;17.25;92705.47;5021126;28;20045;-93
2022/04/16 07:12:22;;;;;;;3.97;1.70;;;;;;;22.61;18.25;92693.94;5041442;28;20013;-92
2022/04/16 07:14:53;;;;;;;4.27;1.50;;;;;;;21.36;21.57;92710.16;5042010;28;20079;-93
2022/04/16 07:17:27;;;;;;;4.03;1.50;;;;;;;21.67;20.67;92709.31;5058936;28;20348;-92
2022/04/16 07:19:57;;;;;;;4.43;1.80;;;;;;;21.46;20.51;92683.03;5039687;28;20045;-90
2022/04/16 07:22:30;;;;;;;4.85;2.30;;;;;;;20.59;21.93;92738.81;5031187;28;20032;-90
2022/04/16 07:25:19;;;;;;;3.75;1.70;;;;;;;20.83;21.45;92731.00;5044279;28;20538;-89
2022/04/16 07:28:35;;;;;;;;;;;;;;;;;;;;;
2022/04/16 07:31:12;;;;;;;5.70;1.98;;;;;;;19.65;22.09;92708.16;5023037;28;20046;-89
2022/04/16 07:33:54;;;;;;;4.80;1.92;;;;;;;20.11;21.25;92682.13;5024589;28;20490;-90
2022/04/16 07:36:26;;;;;;;6.07;1.90;;;;;;;19.13;21.94;92687.72;5010891;28;20042;-90
2022/04/16 07:39:32;;;;;;;8.68;1.98;;;;;;;18.71;24.00;92677.31;5040750;28;20185;-89
2022/04/16 07:42:10;;;;;;;;;;;;;;;;;;;;;
2022/04/16 07:44:51;;;;;;;;;;;;;;;;;;;;;
2022/04/16 07:47:36;;;;;;;9.52;3.72;;;;;;;19.56;26.52;92684.41;5038732;28;20513;-90
2022/04/16 07:50:11;;;;;;;4.88;2.00;;;;;;;18.91;23.20;92659.78;5056030;28;20029;-89
2022/04/16 07:53:17;;;;;;;4.53;2.13;;;;;;;18.71;23.88;92661.41;5016216;28;20070;-88
2022/04/16 07:56:06;;;;;;;11.95;4.00;;;;;;;18.86;27.64;92707.75;4999137;28;20046;-88
2022/04/16 07:58:39;;;;;;;11.50;4.35;;;;;;;18.13;28.82;92677.38;4974295;28;20042;-88
2022/04/16 08:01:07;;;;;;;10.73;4.35;;;;;;;17.76;31.98;92655.28;4984921;28;20042;-88
2022/04/16 08:03:38;;;;;;;8.38;4.03;;;;;;;18.47;31.60;92668.25;5001035;28;20058;-89
2022/04/16 08:06:06;;;;;;;11.07;4.28;;;;;;;17.62;32.70;92666.94;4968773;28;20046;-88
2022/04/16 08:08:43;;;;;;;14.30;5.05;;;;;;;18.12;34.52;92694.38;5035051;28;20045;-89
2022/04/16 08:11:27;;;;;;;11.93;4.50;;;;;;;18.31;33.80;92701.81;5045281;28;20037;-88
2022/04/16 08:14:10;;;;;;;9.23;3.80;;;;;;;17.73;29.93;92696.44;5061921;28;20029;-89
2022/04/16 08:16:45;;;;;;;6.85;3.33;;;;;;;18.01;31.13;92701.97;5043828;28;20063;-88
2022/04/16 08:19:23;;;;;;;12.05;4.60;;;;;;;17.89;34.17;92712.50;5042588;28;20044;-89
2022/04/16 08:21:59;;;;;;;14.40;5.03;;;;;;;17.67;34.29;92685.28;5042737;28;20067;-89
2022/04/16 08:24:39;;;;;;;10.40;4.07;;;;;;;17.27;30.88;92647.94;5026640;28;20101;-89
2022/04/16 08:27:06;;;;;;;10.27;3.92;;;;;;;17.82;32.60;92667.25;5061747;28;20115;-88
2022/04/16 08:29:33;;;;;;;6.90;2.70;;;;;;;17.44;30.57;92660.22;5060532;28;20041;-88
2022/04/16 08:32:06;;;;;;;5.88;2.90;;;;;;;18.57;30.79;92714.00;5040073;28;20021;-89
2022/04/16 08:34:32;;;;;;;6.35;3.03;;;;;;;18.81;31.59;92700.03;5036190;28;20033;-88
2022/04/16 08:37:07;;;;;;;7.50;3.33;;;;;;;18.58;29.65;92657.25;5022989;28;20029;-88
2022/04/16 08:39:36;;;;;;;8.50;3.70;;;;;;;18.33;32.46;92715.53;5019933;28;20067;-88
2022/04/16 08:42:04;;;;;;;9.45;4.30;;;;;;;18.44;32.77;92703.38;5019247;28;20037;-90
2022/04/16 08:44:34;;;;;;;9.32;3.42;;;;;;;18.10;34.56;92676.16;5020374;28;20033;-89
2022/04/16 08:47:03;;;;;;;;;;;;;;;17.87;32.03;92698.81;5054035;28;20123;-89
2022/04/16 08:49:36;;;;;;;8.18;3.60;;;;;;;18.48;32.74;92706.91;5054191;28;19970;-89
2022/04/16 08:52:08;;;;;;;6.93;3.30;;;;;;;18.54;31.22;92675.66;5056711;28;20033;-87
2022/04/16 08:54:42;;;;;;;5.00;2.60;;;;;;;18.43;29.11;92654.13;5029557;28;20041;-88
2022/04/16 08:57:08;;;;;;;8.95;2.92;;;;;;;18.86;28.97;92655.47;5062519;28;20162;-86
2022/04/16 08:59:36;;;;;;;7.25;2.83;;;;;;;19.51;28.69;92678.56;5040770;28;20036;-88
2022/04/16 09:02:13;;;;;;;6.30;2.78;;;;;;;19.22;29.39;92677.75;5024305;28;20064;-87
2022/04/16 09:04:40;;;;;;;5.28;2.95;;;;;;;18.85;29.79;92696.38;5038863;28;20386;-88
2022/04/16 09:07:09;;;;;;;8.93;3.00;;;;;;;18.76;29.50;92690.38;5039790;28;20029;-89
2022/04/16 09:09:38;;;;;;;7.28;3.00;;;;;;;18.68;29.46;92648.81;5039186;28;20034;-88
2022/04/16 09:12:18;;;;;;;5.85;2.40;;;;;;;18.45;29.37;92643.97;5041313;28;20140;-88
2022/04/16 09:14:49;;;;;;;10.02;2.75;;;;;;;18.62;27.25;92631.59;5040929;28;20423;-89
2022/04/16 09:17:24;;;;;;;7.53;3.00;;;;;;;18.35;29.34;92662.97;5038651;28;20048;-88
2022/04/16 09:19:55;;;;;;;6.18;2.88;;;;;;;18.06;30.14;92632.88;5039797;28;20509;-87
2022/04/16 09:22:34;;;;;;;6.37;2.57;;;;;;;18.54;28.25;92635.16;5038838;28;20160;-88
2022/04/16 09:25:15;;;;;;;5.20;2.40;;;;;;;18.56;29.19;92625.75;5040092;28;20564;-89
2022/04/16 09:27:53;;;;;;;4.80;2.25;;;;;;;19.33;28.76;92627.63;5040755;28;20569;-89
2022/04/16 09:30:33;;;;;;;5.70;2.35;;;;;;;18.66;26.49;92633.25;5040762;28;20046;-88
2022/04/16 09:33:02;;;;;;;5.53;2.28;;;;;;;18.60;26.65;92639.91;5025959;28;20033;-88
2022/04/16 09:35:39;;;;;;;5.72;2.35;;;;;;;18.93;27.46;92631.03;5048682;28;20037;-88
2022/04/16 09:38:14;;;;;;;4.75;2.60;;;;;;;18.77;25.83;92643.41;5034192;28;20083;-89
2022/04/16 09:40:46;;;;;;;5.28;2.30;;;;;;;18.90;25.20;92666.19;5018071;28;20057;-88
2022/04/16 09:43:14;;;;;;;5.85;2.05;;;;;;;18.75;26.19;92621.75;5016800;28;20037;-88
2022/04/16 09:45:42;;;;;;;5.43;2.15;;;;;;;19.87;23.91;92668.97;5017386;28;20030;-88
2022/04/16 09:48:17;;;;;;;4.75;2.03;;;;;;;19.67;23.08;92630.84;5017587;28;20034;-90
2022/04/16 09:50:51;;;;;;;8.40;2.28;;;;;;;19.65;23.40;92617.13;5018599;28;20499;-88
2022/04/16 09:53:22;;;;;;;3.75;1.85;;;;;;;19.69;23.29;92618.03;5008711;28;20030;-88
2022/04/16 09:55:50;;;;;;;3.67;1.88;;;;;;;19.60;22.80;92593.47;5023919;28;20046;-88
2022/04/16 09:58:26;;;;;;;5.55;2.30;;;;;;;20.34;22.87;92645.09;5042664;28;20030;-88
2022/04/16 10:01:09;;;;;;;4.63;2.03;;;;;;;19.33;24.58;92623.09;5023242;28;20054;-87
2022/04/16 10:03:51;;;;;;;;;;;;;;;;;;;;;
2022/04/16 10:06:17;;;;;;;4.15;1.80;;;;;;;20.00;22.14;92643.88;5024118;28;20046;-88
2022/04/16 10:08:44;;;;;;;8.55;2.03;;;;;;;20.17;21.96;92632.13;5026134;28;20099;-87
2022/04/16 10:11:19;;;;;;;4.03;1.73;;;;;;;19.75;20.23;92638.69;5028236;28;20073;-90
2022/04/16 10:13:54;;;;;;;3.63;1.70;;;;;;;19.99;22.16;92647.63;5025931;28;20045;-88
2022/04/16 10:16:46;;;;;;;5.05;1.90;;;;;;;20.04;22.61;92647.41;5024637;28;20038;-90
2022/04/16 10:19:17;;;;;;;3.95;1.92;;;;;;;20.35;21.70;92649.31;5023518;28;20042;-90
2022/04/16 10:21:43;;;;;;;4.75;1.80;;;;;;;20.52;21.03;92650.84;5025496;28;20030;-87
2022/04/16 10:24:09;;;;;;;4.88;1.90;;;;;;;20.97;20.33;92630.22;5024872;28;20030;-88
2022/04/16 10:26:39;;;;;;;6.88;1.90;;;;;;;21.49;21.38;92617.63;5026250;28;20555;-90
2022/04/16 10:29:08;;;;;;;3.88;1.80;;;;;;;21.28;20.43;92634.69;5019579;28;20038;-88
2022/04/16 10:31:34;;;;;;;3.78;1.60;;;;;;;20.73;20.44;92631.97;5002012;28;20523;-88
2022/04/16 10:34:05;;;;;;;3.45;1.77;;;;;;;20.78;20.38;92636.25;5015700;28;20126;-88
2022/04/16 10:36:38;;;;;;;3.85;1.65;;;;;;;20.32;18.32;92596.06;4999512;28;20057;-88
2022/04/16 10:39:24;;;;;;;2.95;1.52;;;;;;;20.90;18.88;92625.53;5017694;28;20519;-88
2022/04/16 10:42:01;;;;;;;5.25;1.60;;;;;;;21.01;19.56;92620.44;5016592;28;20046;-89
2022/04/16 10:44:28;;;;;;;4.35;1.70;;;;;;;21.08;18.47;92609.94;4995972;28;20042;-90
2022/04/16 10:46:54;;;;;;;5.10;1.50;;;;;;;20.76;18.12;92606.56;5024351;28;20036;-90
2022/04/16 10:49:23;;;;;;;3.13;1.50;;;;;;;21.32;20.28;92629.44;5029835;28;20033;-88
2022/04/16 10:51:55;;;;;;;4.18;1.50;;;;;;;20.30;18.35;92601.72;5019803;28;20038;-87
2022/04/16 10:54:28;;;;;;;4.45;1.73;;;;;;;21.14;19.85;92629.84;5023130;28;20037;-87
2022/04/16 10:56:55;;;;;;;3.85;1.65;;;;;;;20.58;18.84;92604.31;5026215;28;20040;-88
2022/04/16 10:59:35;;;;;;;4.00;1.70;;;;;;;20.69;17.69;92601.91;5024421;28;20010;-90
2022/04/16 11:02:01;;;;;;;6.25;1.92;;;;;;;20.86;18.98;92582.09;5029468;28;20053;-91
2022/04/16 11:04:32;;;;;;;4.18;1.65;;;;;;;21.06;17.96;92580.25;5029760;28;20095;-92
2022/04/16 11:07:10;;;;;;;3.72;1.70;;;;;;;20.93;18.76;92576.94;5027345;28;20161;-93
2022/04/16 11:09:44;;;;;;;4.22;1.45;;;;;;;20.87;17.07;92566.91;5047042;28;20114;-93
2022/04/16 11:12:31;;;;;;;4.07;1.67;;;;;;;20.84;18.27;92541.78;5045410;28;20048;-93
2022/04/16 11:15:27;;;;;;;2.20;1.20;;;;;;;20.34;17.45;92519.41;5012154;28;20434;-92
2022/04/16 11:18:17;;;;;;;;;;;;;;;;;;;;;
2022/04/16 11:21:35;;;;;;;3.92;1.67;;;;;;;21.55;18.58;92579.72;5045663;28;20045;-93
2022/04/16 11:24:47;;;;;;;4.55;1.80;;;;;;;21.20;17.56;92531.84;5048128;28;20048;-92
2022/04/16 11:36:23;;;;;;;;;;;;;;;;;;;;;
2022/04/16 11:38:54;;;;;;;;;;;;;;;21.29;18.09;92571.56;5020510;28;20061;-93
2022/04/16 11:41:38;;;;;;;3.80;1.42;;;;;;;21.35;16.45;92535.56;5005567;28;20126;-93
2022/04/16 11:44:30;;;;;;;3.97;1.73;;;;;;;22.10;15.15;92542.22;5022265;28;20043;-93
2022/04/16 11:47:49;;;;;;;7.40;1.60;;;;;;;22.36;17.58;92524.72;5037641;28;20045;-94
2022/04/16 11:50:26;;;;;;;3.20;1.37;;;;;;;21.78;15.77;92523.03;5021363;28;20371;-94
2022/04/16 11:53:07;;;;;;;3.35;1.40;;;;;;;21.76;16.02;92510.06;5043266;28;20144;-91
2022/04/16 11:56:10;;;;;;;3.65;1.70;;;;;;;21.69;15.63;92538.50;5027628;28;20053;-93
2022/04/16 11:59:11;;;;;;;3.40;1.60;;;;;;;22.00;16.82;92516.94;5012451;28;20041;-94
2022/04/16 12:02:20;;;;;;;3.88;1.60;;;;;;;22.42;16.96;92533.97;5042670;28;20113;-93
2022/04/16 12:05:00;;;;;;;2.80;1.42;;;;;;;22.37;17.19;92548.38;5025257;28;20033;-92
2022/04/16 12:07:59;;;;;;;4.38;1.73;;;;;;;21.74;18.38;92576.25;5029355;28;20100;-92
2022/04/16 12:14:20;;;;;;;4.45;1.75;;;;;;;21.55;17.10;92515.81;5054153;28;20044;-93
2022/04/16 12:17:12;;;;;;;4.90;1.85;;;;;;;21.18;16.18;92528.75;5027416;28;20386;-93
2022/04/16 12:20:20;;;;;;;;;;;;;;;;;;;;;
2022/04/16 12:23:18;;;;;;;5.68;3.03;;;;;;;21.59;19.21;92537.94;5061947;28;20116;-93
2022/04/16 12:26:25;;;;;;;6.72;3.15;;;;;;;22.27;19.79;92538.34;5025212;28;20133;-93
2022/04/16 12:29:33;;;;;;;4.97;2.13;;;;;;;21.87;15.78;92557.44;5046326;28;20120;-92
2022/04/16 12:32:40;;;;;;;5.68;2.60;;;;;;;21.62;17.26;92533.81;5018551;28;20041;-92
2022/04/16 12:35:12;;;;;;;2.95;1.52;;;;;;;22.33;14.63;92514.78;5029346;28;20037;-91
2022/04/16 12:37:58;;;;;;;3.90;1.40;;;;;;;22.51;12.79;92555.06;4721040;27;11032643;-77
2022/04/16 12:40:26;;;;;;;5.75;1.50;;;;;;;22.72;13.01;92559.94;5087571;28;20033;-74
2022/04/16 12:42:56;;;;;;;2.70;1.33;;;;;;;22.82;13.34;92556.66;5086724;28;20456;-77
2022/04/16 12:45:23;;;;;;;3.25;1.52;;;;;;;22.09;13.16;92550.56;5050160;28;20135;-76
2022/04/16 12:47:50;;;;;;;2.20;1.50;;;;;;;22.34;12.22;92548.34;5067829;28;20038;-77
2022/04/16 12:50:16;;;;;;;7.10;1.70;;;;;;;22.47;13.47;92556.91;5067534;28;20218;-77
2022/04/16 12:52:43;;;;;;;6.25;1.60;;;;;;;23.14;11.68;92556.31;5067534;28;20040;-77
2022/04/16 12:55:09;;;;;;;2.95;1.45;;;;;;;22.84;12.21;92557.81;5050292;28;20044;-77
2022/04/16 12:57:35;;;;;;;9.60;1.45;;;;;;;23.45;12.80;92563.94;5067875;28;20418;-77
2022/04/16 13:00:00;;;;;;;5.03;1.50;;;;;;;23.83;13.10;92564.00;5067828;28;20044;-77
2022/04/16 13:02:26;;;;;;;3.53;1.50;;;;;;;23.33;12.99;92548.19;5066241;28;20083;-75
2022/04/16 13:04:52;;;;;;;4.78;1.50;;;;;;;22.85;12.73;92567.38;5067796;28;20549;-77
2022/04/16 13:07:17;;;;;;;3.65;1.60;;;;;;;23.22;13.10;92569.41;5068326;28;20027;-77
2022/04/16 13:09:43;;;;;;;2.75;1.50;;;;;;;22.55;12.94;92555.88;5066396;28;20052;-76
2022/04/16 13:12:09;;;;;;;2.63;1.30;;;;;;;22.68;14.35;92577.81;5066339;28;20429;-76
2022/04/16 13:14:39;;;;;;;4.95;1.50;;;;;;;23.01;13.79;92569.91;5067241;28;20379;-76
2022/04/16 13:17:05;;;;;;;5.00;1.50;;;;;;;23.30;13.95;92566.81;5067369;28;20067;-76
2022/04/16 13:19:31;;;;;;;4.28;1.60;;;;;;;23.46;13.79;92578.06;5067272;28;20032;-76
2022/04/16 13:21:57;;;;;;;3.47;1.67;;;;;;;23.45;14.32;92571.97;5066333;28;20032;-76
2022/04/16 13:24:23;;;;;;;3.92;1.48;;;;;;;23.03;12.50;92589.00;5049523;28;20494;-77
2022/04/16 13:26:48;;;;;;;5.18;1.70;;;;;;;22.72;14.21;92582.06;5067361;28;20079;-77
2022/04/16 13:29:17;;;;;;;3.17;1.65;;;;;;;22.89;13.47;92572.75;5065935;28;20123;-77
2022/04/16 13:31:44;;;;;;;7.45;1.38;;;;;;;23.35;14.16;92572.63;5066592;28;20064;-77
2022/04/16 13:34:10;;;;;;;2.85;1.50;;;;;;;23.73;13.15;92569.97;5067167;28;20371;-77
2022/04/16 13:36:36;;;;;;;2.60;1.45;;;;;;;23.36;13.49;92573.38;5074567;28;20054;-77
2022/04/16 13:39:04;;;;;;;4.85;1.58;;;;;;;23.56;12.57;92560.63;5087183;28;20101;-76
2022/04/16 13:41:39;;;;;;;2.47;1.30;;;;;;;23.49;12.77;92554.06;5086664;28;20153;-74
2022/04/16 13:44:14;;;;;;;3.50;1.48;;;;;;;22.76;13.10;92552.75;5068858;28;20047;-76
2022/04/16 13:46:40;;;;;;;3.22;1.60;;;;;;;22.71;12.97;92545.06;5086449;28;20028;-76
2022/04/16 13:49:06;;;;;;;4.25;1.67;;;;;;;23.31;15.12;92533.66;5074762;28;20085;-77
2022/04/16 13:51:32;;;;;;;7.32;1.95;;;;;;;23.74;13.66;92539.44;5073182;28;20063;-77
2022/04/16 13:53:59;;;;;;;3.08;1.42;;;;;;;23.26;12.67;92527.50;5073494;28;20036;-77
2022/04/16 13:56:25;;;;;;;3.55;1.67;;;;;;;23.01;12.48;92527.19;5055557;28;20020;-77
2022/04/16 13:58:51;;;;;;;3.45;1.50;;;;;;;23.52;13.53;92519.75;5073676;28;20118;-77
2022/04/16 14:01:17;;;;;;;4.28;1.55;;;;;;;23.36;13.24;92526.06;5072318;28;20493;-76
2022/04/16 14:03:49;;;;;;;5.85;1.90;;;;;;;23.03;11.45;92522.28;5072933;28;20051;-76
2022/04/16 14:06:15;;;;;;;3.10;1.70;;;;;;;22.88;13.55;92512.50;5073293;28;20032;-76
2022/04/16 14:08:41;;;;;;;2.83;1.50;;;;;;;22.58;12.01;92499.91;5073298;28;20616;-76
2022/04/16 14:11:08;;;;;;;4.55;1.55;;;;;;;22.94;12.06;92504.94;5073215;28;20042;-77
2022/04/16 14:13:34;;;;;;;3.50;1.60;;;;;;;23.09;11.47;92508.59;5054935;28;20032;-77
2022/04/16 14:16:01;;;;;;;4.82;1.50;;;;;;;23.39;12.15;92514.66;5073341;28;20486;-77
2022/04/16 14:18:27;;;;;;;3.78;1.33;;;;;;;23.77;11.93;92498.66;5055377;28;20123;-77
2022/04/16 14:20:53;;;;;;;3.40;1.50;;;;;;;24.35;12.41;92507.91;5073464;28;20914;-77
2022/04/16 14:23:18;;;;;;;4.13;1.70;;;;;;;24.35;11.15;92499.88;5077085;28;20581;-75
2022/04/16 14:25:44;;;;;;;4.93;1.80;;;;;;;24.17;10.34;92499.75;5051365;28;20036;-76
2022/04/16 14:28:10;;;;;;;4.07;1.70;;;;;;;23.82;10.46;92507.09;5087661;28;20485;-77
2022/04/16 14:30:39;;;;;;;6.93;2.03;;;;;;;22.96;10.94;92495.44;5071004;28;20040;-76